sensor_id;sensor_type;location;lat;lon;timestamp;P1;durP1;ratioP1;P2;durP2;ratioP2
966;SDS011;56108;48.730;9.304;2024-01-10T00:00:45;10.50;;;6.45;;
966;SDS011;56108;48.730;9.304;2024-01-10T00:02:56;9.20;;;5.70;;
966;SDS011;56108;48.730;9.304;2024-01-10T00:05:05;7.55;;;5.53;;
966;SDS011;56108;48.730;9.304;2024-01-10T00:07:15;11.40;;;6.20;;
966;SDS011;56108;48.730;9.304;2024-01-10T00:09:21;8.80;;;6.95;;
966;SDS011;56108;48.730;9.304;2024-01-10T00:11:30;14.05;;;6.05;;
966;SDS011;56108;48.730;9.304;2024-01-10T00:13:39;8.82;;;5.75;;
966;SDS011;56108;48.730;9.304;2024-01-10T00:15:49;6.90;;;5.70;;
966;SDS011;56108;48.730;9.304;2024-01-10T00:18:00;11.13;;;7.78;;
966;SDS011;56108;48.730;9.304;2024-01-10T00:20:10;12.18;;;6.32;;
966;SDS011;56108;48.730;9.304;2024-01-10T00:22:18;9.90;;;8.02;;
966;SDS011;56108;48.730;9.304;2024-01-10T00:24:27;10.05;;;6.82;;
966;SDS011;56108;48.730;9.304;2024-01-10T00:26:36;13.18;;;7.38;;
966;SDS011;56108;48.730;9.304;2024-01-10T00:28:44;12.98;;;6.50;;
966;SDS011;56108;48.730;9.304;2024-01-10T00:30:56;12.38;;;7.18;;
966;SDS011;56108;48.730;9.304;2024-01-10T00:33:07;12.63;;;5.75;;
966;SDS011;56108;48.730;9.304;2024-01-10T00:35:16;10.70;;;7.25;;
966;SDS011;56108;48.730;9.304;2024-01-10T00:37:26;11.00;;;5.25;;
966;SDS011;56108;48.730;9.304;2024-01-10T00:39:36;13.85;;;8.35;;
966;SDS011;56108;48.730;9.304;2024-01-10T00:41:44;8.48;;;6.40;;
966;SDS011;56108;48.730;9.304;2024-01-10T00:43:50;6.65;;;5.20;;
966;SDS011;56108;48.730;9.304;2024-01-10T00:46:01;7.60;;;6.75;;
966;SDS011;56108;48.730;9.304;2024-01-10T00:48:15;12.68;;;7.05;;
966;SDS011;56108;48.730;9.304;2024-01-10T00:50:24;12.48;;;6.85;;
966;SDS011;56108;48.730;9.304;2024-01-10T00:52:33;7.40;;;6.40;;
966;SDS011;56108;48.730;9.304;2024-01-10T00:54:42;13.82;;;6.50;;
966;SDS011;56108;48.730;9.304;2024-01-10T00:56:51;7.63;;;6.70;;
966;SDS011;56108;48.730;9.304;2024-01-10T00:59:00;8.40;;;5.32;;
966;SDS011;56108;48.730;9.304;2024-01-10T01:01:09;13.63;;;7.40;;
966;SDS011;56108;48.730;9.304;2024-01-10T01:03:20;7.05;;;6.45;;
966;SDS011;56108;48.730;9.304;2024-01-10T01:05:28;10.57;;;5.95;;
966;SDS011;56108;48.730;9.304;2024-01-10T01:07:37;9.43;;;6.60;;
966;SDS011;56108;48.730;9.304;2024-01-10T01:09:46;9.70;;;6.82;;
966;SDS011;56108;48.730;9.304;2024-01-10T01:11:55;13.70;;;7.18;;
966;SDS011;56108;48.730;9.304;2024-01-10T01:14:03;8.32;;;6.63;;
966;SDS011;56108;48.730;9.304;2024-01-10T01:16:12;13.63;;;6.80;;
966;SDS011;56108;48.730;9.304;2024-01-10T01:18:20;10.55;;;7.72;;
966;SDS011;56108;48.730;9.304;2024-01-10T01:20:29;8.68;;;6.25;;
966;SDS011;56108;48.730;9.304;2024-01-10T01:22:38;9.18;;;6.38;;
966;SDS011;56108;48.730;9.304;2024-01-10T01:24:44;9.88;;;6.05;;
966;SDS011;56108;48.730;9.304;2024-01-10T01:26:53;14.20;;;8.32;;
966;SDS011;56108;48.730;9.304;2024-01-10T01:29:03;10.88;;;7.80;;
966;SDS011;56108;48.730;9.304;2024-01-10T01:31:13;12.38;;;6.53;;
966;SDS011;56108;48.730;9.304;2024-01-10T01:33:22;14.75;;;8.68;;
966;SDS011;56108;48.730;9.304;2024-01-10T01:35:31;8.68;;;5.78;;
966;SDS011;56108;48.730;9.304;2024-01-10T01:37:40;9.50;;;7.00;;
966;SDS011;56108;48.730;9.304;2024-01-10T01:39:46;10.05;;;8.68;;
966;SDS011;56108;48.730;9.304;2024-01-10T01:41:54;10.73;;;7.68;;
966;SDS011;56108;48.730;9.304;2024-01-10T01:44:01;14.48;;;9.88;;
966;SDS011;56108;48.730;9.304;2024-01-10T01:46:09;17.52;;;8.70;;
966;SDS011;56108;48.730;9.304;2024-01-10T01:48:22;11.98;;;7.50;;
966;SDS011;56108;48.730;9.304;2024-01-10T01:50:33;20.10;;;8.98;;
966;SDS011;56108;48.730;9.304;2024-01-10T01:52:41;7.75;;;7.00;;
966;SDS011;56108;48.730;9.304;2024-01-10T01:54:51;13.40;;;8.32;;
966;SDS011;56108;48.730;9.304;2024-01-10T01:56:59;11.82;;;7.82;;
966;SDS011;56108;48.730;9.304;2024-01-10T01:59:08;12.90;;;7.43;;
966;SDS011;56108;48.730;9.304;2024-01-10T02:01:17;13.45;;;7.47;;
966;SDS011;56108;48.730;9.304;2024-01-10T02:03:31;16.63;;;7.90;;
966;SDS011;56108;48.730;9.304;2024-01-10T02:05:40;7.43;;;6.05;;
966;SDS011;56108;48.730;9.304;2024-01-10T02:07:49;9.10;;;6.20;;
966;SDS011;56108;48.730;9.304;2024-01-10T02:09:57;9.35;;;6.70;;
966;SDS011;56108;48.730;9.304;2024-01-10T02:12:06;9.73;;;7.43;;
966;SDS011;56108;48.730;9.304;2024-01-10T02:14:17;11.15;;;8.48;;
966;SDS011;56108;48.730;9.304;2024-01-10T02:16:26;9.15;;;6.18;;
966;SDS011;56108;48.730;9.304;2024-01-10T02:18:35;10.38;;;6.80;;
966;SDS011;56108;48.730;9.304;2024-01-10T02:20:44;14.90;;;7.55;;
966;SDS011;56108;48.730;9.304;2024-01-10T02:22:53;7.55;;;6.85;;
966;SDS011;56108;48.730;9.304;2024-01-10T02:25:04;12.57;;;7.50;;
966;SDS011;56108;48.730;9.304;2024-01-10T02:27:14;16.00;;;8.25;;
966;SDS011;56108;48.730;9.304;2024-01-10T02:29:22;8.60;;;5.82;;
966;SDS011;56108;48.730;9.304;2024-01-10T02:31:31;12.15;;;6.93;;
966;SDS011;56108;48.730;9.304;2024-01-10T02:33:40;13.90;;;7.38;;
966;SDS011;56108;48.730;9.304;2024-01-10T02:35:48;8.80;;;6.97;;
966;SDS011;56108;48.730;9.304;2024-01-10T02:37:55;8.75;;;6.30;;
966;SDS011;56108;48.730;9.304;2024-01-10T02:40:08;9.07;;;5.32;;
966;SDS011;56108;48.730;9.304;2024-01-10T02:42:18;8.68;;;5.70;;
966;SDS011;56108;48.730;9.304;2024-01-10T02:44:27;9.85;;;8.52;;
966;SDS011;56108;48.730;9.304;2024-01-10T02:46:35;8.05;;;5.72;;
966;SDS011;56108;48.730;9.304;2024-01-10T02:48:44;9.40;;;7.18;;
966;SDS011;56108;48.730;9.304;2024-01-10T02:50:52;9.93;;;7.30;;
966;SDS011;56108;48.730;9.304;2024-01-10T02:53:02;9.82;;;7.75;;
966;SDS011;56108;48.730;9.304;2024-01-10T02:55:11;10.65;;;6.97;;
966;SDS011;56108;48.730;9.304;2024-01-10T02:57:20;7.38;;;6.10;;
966;SDS011;56108;48.730;9.304;2024-01-10T02:59:29;12.60;;;8.07;;
966;SDS011;56108;48.730;9.304;2024-01-10T03:01:37;8.43;;;7.65;;
966;SDS011;56108;48.730;9.304;2024-01-10T03:03:49;9.18;;;5.45;;
966;SDS011;56108;48.730;9.304;2024-01-10T03:05:57;9.82;;;6.10;;
966;SDS011;56108;48.730;9.304;2024-01-10T03:08:06;8.20;;;7.35;;
966;SDS011;56108;48.730;9.304;2024-01-10T03:10:17;9.30;;;7.05;;
966;SDS011;56108;48.730;9.304;2024-01-10T03:12:27;15.35;;;7.32;;
966;SDS011;56108;48.730;9.304;2024-01-10T03:14:35;7.97;;;6.20;;
966;SDS011;56108;48.730;9.304;2024-01-10T03:16:44;9.27;;;7.97;;
966;SDS011;56108;48.730;9.304;2024-01-10T03:18:53;9.63;;;7.40;;
966;SDS011;56108;48.730;9.304;2024-01-10T03:21:02;11.95;;;7.43;;
966;SDS011;56108;48.730;9.304;2024-01-10T03:23:11;11.55;;;7.18;;
966;SDS011;56108;48.730;9.304;2024-01-10T03:25:22;14.18;;;6.45;;
966;SDS011;56108;48.730;9.304;2024-01-10T03:27:31;9.63;;;7.05;;
966;SDS011;56108;48.730;9.304;2024-01-10T03:29:39;10.82;;;7.47;;
966;SDS011;56108;48.730;9.304;2024-01-10T03:31:48;12.27;;;7.35;;
966;SDS011;56108;48.730;9.304;2024-01-10T03:33:57;13.45;;;6.00;;
966;SDS011;56108;48.730;9.304;2024-01-10T03:36:06;10.32;;;7.13;;
966;SDS011;56108;48.730;9.304;2024-01-10T03:38:19;9.13;;;7.32;;
966;SDS011;56108;48.730;9.304;2024-01-10T03:40:30;20.00;;;8.48;;
966;SDS011;56108;48.730;9.304;2024-01-10T03:42:39;9.80;;;6.43;;
966;SDS011;56108;48.730;9.304;2024-01-10T03:44:47;9.43;;;6.28;;
966;SDS011;56108;48.730;9.304;2024-01-10T03:46:56;7.35;;;5.72;;
966;SDS011;56108;48.730;9.304;2024-01-10T03:49:05;7.00;;;6.30;;
966;SDS011;56108;48.730;9.304;2024-01-10T03:51:13;11.00;;;7.75;;
966;SDS011;56108;48.730;9.304;2024-01-10T03:53:23;10.10;;;6.65;;
966;SDS011;56108;48.730;9.304;2024-01-10T03:55:34;12.20;;;7.00;;
966;SDS011;56108;48.730;9.304;2024-01-10T03:57:44;10.65;;;5.78;;
966;SDS011;56108;48.730;9.304;2024-01-10T03:59:52;8.02;;;7.05;;
966;SDS011;56108;48.730;9.304;2024-01-10T04:02:01;15.93;;;7.18;;
966;SDS011;56108;48.730;9.304;2024-01-10T04:04:10;12.85;;;8.38;;
966;SDS011;56108;48.730;9.304;2024-01-10T04:06:15;11.98;;;6.50;;
966;SDS011;56108;48.730;9.304;2024-01-10T04:08:24;9.95;;;6.80;;
966;SDS011;56108;48.730;9.304;2024-01-10T04:10:35;6.63;;;6.07;;
966;SDS011;56108;48.730;9.304;2024-01-10T04:12:44;11.02;;;6.82;;
966;SDS011;56108;48.730;9.304;2024-01-10T04:14:53;7.97;;;7.10;;
966;SDS011;56108;48.730;9.304;2024-01-10T04:17:01;12.15;;;8.43;;
966;SDS011;56108;48.730;9.304;2024-01-10T04:19:12;10.27;;;6.82;;
966;SDS011;56108;48.730;9.304;2024-01-10T04:21:20;10.95;;;6.72;;
966;SDS011;56108;48.730;9.304;2024-01-10T04:23:28;9.30;;;6.63;;
966;SDS011;56108;48.730;9.304;2024-01-10T04:25:38;8.27;;;5.95;;
966;SDS011;56108;48.730;9.304;2024-01-10T04:27:47;7.50;;;6.80;;
966;SDS011;56108;48.730;9.304;2024-01-10T04:29:55;9.40;;;7.68;;
966;SDS011;56108;48.730;9.304;2024-01-10T04:32:04;9.48;;;6.47;;
966;SDS011;56108;48.730;9.304;2024-01-10T04:34:14;17.15;;;7.80;;
966;SDS011;56108;48.730;9.304;2024-01-10T04:36:22;10.20;;;6.65;;
966;SDS011;56108;48.730;9.304;2024-01-10T04:38:33;8.45;;;7.55;;
966;SDS011;56108;48.730;9.304;2024-01-10T04:40:45;13.52;;;7.43;;
966;SDS011;56108;48.730;9.304;2024-01-10T04:42:53;12.73;;;8.45;;
966;SDS011;56108;48.730;9.304;2024-01-10T04:45:03;6.35;;;5.65;;
966;SDS011;56108;48.730;9.304;2024-01-10T04:47:12;8.73;;;6.43;;
966;SDS011;56108;48.730;9.304;2024-01-10T04:49:21;6.32;;;5.78;;
966;SDS011;56108;48.730;9.304;2024-01-10T04:51:30;8.95;;;5.90;;
966;SDS011;56108;48.730;9.304;2024-01-10T04:53:38;6.95;;;6.10;;
966;SDS011;56108;48.730;9.304;2024-01-10T04:55:50;8.80;;;7.10;;
966;SDS011;56108;48.730;9.304;2024-01-10T04:57:58;12.77;;;7.20;;
966;SDS011;56108;48.730;9.304;2024-01-10T05:00:05;7.63;;;5.78;;
966;SDS011;56108;48.730;9.304;2024-01-10T05:02:15;9.18;;;6.43;;
966;SDS011;56108;48.730;9.304;2024-01-10T05:04:24;10.52;;;6.80;;
966;SDS011;56108;48.730;9.304;2024-01-10T05:06:32;10.70;;;8.00;;
966;SDS011;56108;48.730;9.304;2024-01-10T05:08:41;10.27;;;6.80;;
966;SDS011;56108;48.730;9.304;2024-01-10T05:10:52;9.82;;;8.07;;
966;SDS011;56108;48.730;9.304;2024-01-10T05:13:01;10.00;;;6.20;;
966;SDS011;56108;48.730;9.304;2024-01-10T05:15:10;8.35;;;7.00;;
966;SDS011;56108;48.730;9.304;2024-01-10T05:17:18;7.43;;;6.63;;
966;SDS011;56108;48.730;9.304;2024-01-10T05:19:27;13.13;;;7.85;;
966;SDS011;56108;48.730;9.304;2024-01-10T05:21:35;9.10;;;6.53;;
966;SDS011;56108;48.730;9.304;2024-01-10T05:23:45;11.77;;;7.10;;
966;SDS011;56108;48.730;9.304;2024-01-10T05:25:57;6.35;;;4.90;;
966;SDS011;56108;48.730;9.304;2024-01-10T05:28:05;10.02;;;6.97;;
966;SDS011;56108;48.730;9.304;2024-01-10T05:30:15;7.38;;;6.28;;
966;SDS011;56108;48.730;9.304;2024-01-10T05:32:23;8.25;;;6.03;;
966;SDS011;56108;48.730;9.304;2024-01-10T05:34:33;10.15;;;7.30;;
966;SDS011;56108;48.730;9.304;2024-01-10T05:36:41;10.25;;;8.32;;
966;SDS011;56108;48.730;9.304;2024-01-10T05:38:49;9.95;;;7.13;;
966;SDS011;56108;48.730;9.304;2024-01-10T05:41:01;9.07;;;6.28;;
966;SDS011;56108;48.730;9.304;2024-01-10T05:43:09;10.00;;;7.72;;
966;SDS011;56108;48.730;9.304;2024-01-10T05:45:15;6.55;;;5.43;;
966;SDS011;56108;48.730;9.304;2024-01-10T05:47:24;6.80;;;5.60;;
966;SDS011;56108;48.730;9.304;2024-01-10T05:49:33;10.32;;;8.73;;
966;SDS011;56108;48.730;9.304;2024-01-10T05:51:42;13.82;;;8.35;;
966;SDS011;56108;48.730;9.304;2024-01-10T05:53:51;14.57;;;7.13;;
966;SDS011;56108;48.730;9.304;2024-01-10T05:56:05;9.65;;;5.95;;
966;SDS011;56108;48.730;9.304;2024-01-10T05:58:14;14.38;;;7.32;;
966;SDS011;56108;48.730;9.304;2024-01-10T06:00:22;14.18;;;7.68;;
966;SDS011;56108;48.730;9.304;2024-01-10T06:02:33;11.85;;;9.25;;
966;SDS011;56108;48.730;9.304;2024-01-10T06:04:43;10.80;;;6.38;;
966;SDS011;56108;48.730;9.304;2024-01-10T06:06:52;12.27;;;6.57;;
966;SDS011;56108;48.730;9.304;2024-01-10T06:08:58;13.70;;;7.68;;
966;SDS011;56108;48.730;9.304;2024-01-10T06:11:10;19.08;;;8.25;;
966;SDS011;56108;48.730;9.304;2024-01-10T06:13:19;10.55;;;7.57;;
966;SDS011;56108;48.730;9.304;2024-01-10T06:15:28;12.18;;;8.60;;
966;SDS011;56108;48.730;9.304;2024-01-10T06:17:36;12.25;;;6.88;;
966;SDS011;56108;48.730;9.304;2024-01-10T06:19:45;13.55;;;7.45;;
966;SDS011;56108;48.730;9.304;2024-01-10T06:21:55;10.55;;;7.03;;
966;SDS011;56108;48.730;9.304;2024-01-10T06:24:03;10.75;;;7.55;;
966;SDS011;56108;48.730;9.304;2024-01-10T06:26:15;10.23;;;7.28;;
966;SDS011;56108;48.730;9.304;2024-01-10T06:28:24;12.23;;;7.20;;
966;SDS011;56108;48.730;9.304;2024-01-10T06:30:32;10.88;;;8.15;;
966;SDS011;56108;48.730;9.304;2024-01-10T06:32:41;14.23;;;8.57;;
966;SDS011;56108;48.730;9.304;2024-01-10T06:34:50;10.73;;;7.65;;
966;SDS011;56108;48.730;9.304;2024-01-10T06:36:59;7.07;;;6.47;;
966;SDS011;56108;48.730;9.304;2024-01-10T06:39:37;9.73;;;6.10;;
966;SDS011;56108;48.730;9.304;2024-01-10T06:41:50;11.93;;;6.80;;
966;SDS011;56108;48.730;9.304;2024-01-10T06:43:58;8.00;;;6.78;;
966;SDS011;56108;48.730;9.304;2024-01-10T06:46:09;19.20;;;9.15;;
966;SDS011;56108;48.730;9.304;2024-01-10T06:48:18;11.63;;;6.90;;
966;SDS011;56108;48.730;9.304;2024-01-10T06:50:27;13.60;;;8.50;;
966;SDS011;56108;48.730;9.304;2024-01-10T06:52:32;10.50;;;6.50;;
966;SDS011;56108;48.730;9.304;2024-01-10T06:54:42;16.23;;;8.02;;
966;SDS011;56108;48.730;9.304;2024-01-10T06:56:53;11.35;;;6.97;;
966;SDS011;56108;48.730;9.304;2024-01-10T06:58:59;11.13;;;8.57;;
966;SDS011;56108;48.730;9.304;2024-01-10T07:01:11;9.50;;;7.38;;
966;SDS011;56108;48.730;9.304;2024-01-10T07:03:20;9.13;;;6.57;;
966;SDS011;56108;48.730;9.304;2024-01-10T07:05:29;11.93;;;6.43;;
966;SDS011;56108;48.730;9.304;2024-01-10T07:07:39;10.40;;;7.75;;
966;SDS011;56108;48.730;9.304;2024-01-10T07:09:44;11.70;;;6.30;;
966;SDS011;56108;48.730;9.304;2024-01-10T07:11:56;7.55;;;6.85;;
966;SDS011;56108;48.730;9.304;2024-01-10T07:14:05;17.13;;;8.10;;
966;SDS011;56108;48.730;9.304;2024-01-10T07:16:13;10.15;;;6.43;;
966;SDS011;56108;48.730;9.304;2024-01-10T07:18:24;6.78;;;6.18;;
966;SDS011;56108;48.730;9.304;2024-01-10T07:20:33;10.57;;;6.72;;
966;SDS011;56108;48.730;9.304;2024-01-10T07:22:42;11.05;;;7.57;;
966;SDS011;56108;48.730;9.304;2024-01-10T07:24:51;11.32;;;8.02;;
966;SDS011;56108;48.730;9.304;2024-01-10T07:27:04;10.02;;;7.55;;
966;SDS011;56108;48.730;9.304;2024-01-10T07:29:13;11.50;;;9.05;;
966;SDS011;56108;48.730;9.304;2024-01-10T07:31:22;11.20;;;7.10;;
966;SDS011;56108;48.730;9.304;2024-01-10T07:33:33;10.50;;;7.60;;
966;SDS011;56108;48.730;9.304;2024-01-10T07:35:41;9.85;;;6.72;;
966;SDS011;56108;48.730;9.304;2024-01-10T07:37:50;9.25;;;6.45;;
966;SDS011;56108;48.730;9.304;2024-01-10T07:42:28;14.23;;;7.05;;
966;SDS011;56108;48.730;9.304;2024-01-10T07:44:36;9.35;;;8.35;;
966;SDS011;56108;48.730;9.304;2024-01-10T07:46:49;10.38;;;7.65;;
966;SDS011;56108;48.730;9.304;2024-01-10T07:48:56;10.25;;;7.50;;
966;SDS011;56108;48.730;9.304;2024-01-10T07:51:05;11.18;;;9.02;;
966;SDS011;56108;48.730;9.304;2024-01-10T07:53:15;12.00;;;8.20;;
966;SDS011;56108;48.730;9.304;2024-01-10T07:55:23;12.85;;;8.73;;
966;SDS011;56108;48.730;9.304;2024-01-10T07:57:37;10.27;;;6.80;;
966;SDS011;56108;48.730;9.304;2024-01-10T07:59:47;17.88;;;9.23;;
966;SDS011;56108;48.730;9.304;2024-01-10T08:01:59;12.70;;;9.50;;
966;SDS011;56108;48.730;9.304;2024-01-10T08:04:10;15.65;;;7.90;;
966;SDS011;56108;48.730;9.304;2024-01-10T08:06:24;15.98;;;10.20;;
966;SDS011;56108;48.730;9.304;2024-01-10T08:08:37;16.55;;;9.63;;
966;SDS011;56108;48.730;9.304;2024-01-10T08:10:46;20.20;;;11.52;;
966;SDS011;56108;48.730;9.304;2024-01-10T08:12:55;24.15;;;12.20;;
966;SDS011;56108;48.730;9.304;2024-01-10T08:15:05;16.48;;;9.27;;
966;SDS011;56108;48.730;9.304;2024-01-10T08:17:15;15.52;;;11.07;;
966;SDS011;56108;48.730;9.304;2024-01-10T08:19:25;22.73;;;11.50;;
966;SDS011;56108;48.730;9.304;2024-01-10T08:21:35;15.70;;;8.07;;
966;SDS011;56108;48.730;9.304;2024-01-10T08:23:43;15.20;;;10.07;;
966;SDS011;56108;48.730;9.304;2024-01-10T08:25:52;14.68;;;10.70;;
966;SDS011;56108;48.730;9.304;2024-01-10T08:28:04;14.20;;;9.88;;
966;SDS011;56108;48.730;9.304;2024-01-10T08:30:15;13.07;;;9.80;;
966;SDS011;56108;48.730;9.304;2024-01-10T08:32:25;13.05;;;10.30;;
966;SDS011;56108;48.730;9.304;2024-01-10T08:34:34;13.20;;;9.27;;
966;SDS011;56108;48.730;9.304;2024-01-10T08:36:44;14.77;;;8.98;;
966;SDS011;56108;48.730;9.304;2024-01-10T08:38:55;18.60;;;8.93;;
966;SDS011;56108;48.730;9.304;2024-01-10T08:41:06;11.05;;;8.68;;
966;SDS011;56108;48.730;9.304;2024-01-10T08:43:20;16.00;;;8.93;;
966;SDS011;56108;48.730;9.304;2024-01-10T08:45:29;13.52;;;8.70;;
966;SDS011;56108;48.730;9.304;2024-01-10T08:47:38;15.75;;;9.40;;
966;SDS011;56108;48.730;9.304;2024-01-10T08:49:48;17.88;;;11.70;;
966;SDS011;56108;48.730;9.304;2024-01-10T08:51:57;17.92;;;10.98;;
966;SDS011;56108;48.730;9.304;2024-01-10T08:54:07;18.42;;;11.70;;
966;SDS011;56108;48.730;9.304;2024-01-10T08:56:17;20.67;;;10.25;;
966;SDS011;56108;48.730;9.304;2024-01-10T08:58:30;12.02;;;9.27;;
966;SDS011;56108;48.730;9.304;2024-01-10T09:00:40;15.27;;;11.35;;
966;SDS011;56108;48.730;9.304;2024-01-10T09:02:50;11.85;;;9.00;;
966;SDS011;56108;48.730;9.304;2024-01-10T09:04:59;16.33;;;10.25;;
966;SDS011;56108;48.730;9.304;2024-01-10T09:07:08;21.20;;;11.13;;
966;SDS011;56108;48.730;9.304;2024-01-10T09:09:17;15.20;;;8.88;;
966;SDS011;56108;48.730;9.304;2024-01-10T09:11:27;16.85;;;8.77;;
966;SDS011;56108;48.730;9.304;2024-01-10T09:13:37;12.77;;;9.82;;
966;SDS011;56108;48.730;9.304;2024-01-10T09:15:46;16.65;;;9.77;;
966;SDS011;56108;48.730;9.304;2024-01-10T09:17:57;18.02;;;12.18;;
966;SDS011;56108;48.730;9.304;2024-01-10T09:20:06;20.33;;;11.90;;
966;SDS011;56108;48.730;9.304;2024-01-10T09:22:15;21.70;;;10.15;;
966;SDS011;56108;48.730;9.304;2024-01-10T09:24:29;19.13;;;11.80;;
966;SDS011;56108;48.730;9.304;2024-01-10T09:26:38;15.98;;;10.60;;
966;SDS011;56108;48.730;9.304;2024-01-10T09:29:04;16.90;;;11.02;;
966;SDS011;56108;48.730;9.304;2024-01-10T09:31:16;21.08;;;10.93;;
966;SDS011;56108;48.730;9.304;2024-01-10T09:33:31;19.33;;;11.20;;
966;SDS011;56108;48.730;9.304;2024-01-10T09:35:40;18.80;;;11.90;;
966;SDS011;56108;48.730;9.304;2024-01-10T09:38:15;14.50;;;11.40;;
966;SDS011;56108;48.730;9.304;2024-01-10T09:40:25;15.35;;;12.00;;
966;SDS011;56108;48.730;9.304;2024-01-10T09:42:33;20.95;;;12.10;;
966;SDS011;56108;48.730;9.304;2024-01-10T09:44:47;22.67;;;12.98;;
966;SDS011;56108;48.730;9.304;2024-01-10T09:46:55;24.30;;;13.85;;
966;SDS011;56108;48.730;9.304;2024-01-10T09:49:04;21.20;;;14.50;;
966;SDS011;56108;48.730;9.304;2024-01-10T09:51:14;21.75;;;13.38;;
966;SDS011;56108;48.730;9.304;2024-01-10T09:53:22;22.83;;;14.73;;
966;SDS011;56108;48.730;9.304;2024-01-10T09:55:34;22.15;;;12.93;;
966;SDS011;56108;48.730;9.304;2024-01-10T09:57:44;24.33;;;14.70;;
966;SDS011;56108;48.730;9.304;2024-01-10T09:59:56;19.65;;;12.70;;
966;SDS011;56108;48.730;9.304;2024-01-10T10:02:10;22.00;;;12.00;;
966;SDS011;56108;48.730;9.304;2024-01-10T10:04:21;16.05;;;11.73;;
966;SDS011;56108;48.730;9.304;2024-01-10T10:06:31;21.33;;;12.70;;
966;SDS011;56108;48.730;9.304;2024-01-10T10:08:41;15.27;;;10.73;;
966;SDS011;56108;48.730;9.304;2024-01-10T10:10:50;19.63;;;12.27;;
966;SDS011;56108;48.730;9.304;2024-01-10T10:12:59;17.38;;;12.25;;
966;SDS011;56108;48.730;9.304;2024-01-10T10:15:12;19.08;;;12.05;;
966;SDS011;56108;48.730;9.304;2024-01-10T10:17:23;28.75;;;12.43;;
966;SDS011;56108;48.730;9.304;2024-01-10T10:19:36;20.92;;;11.55;;
966;SDS011;56108;48.730;9.304;2024-01-10T10:21:45;17.83;;;11.65;;
966;SDS011;56108;48.730;9.304;2024-01-10T10:23:58;20.90;;;13.52;;
966;SDS011;56108;48.730;9.304;2024-01-10T10:26:12;19.52;;;13.25;;
966;SDS011;56108;48.730;9.304;2024-01-10T10:28:28;17.45;;;12.20;;
966;SDS011;56108;48.730;9.304;2024-01-10T10:30:43;16.45;;;11.35;;
966;SDS011;56108;48.730;9.304;2024-01-10T10:32:55;21.40;;;10.95;;
966;SDS011;56108;48.730;9.304;2024-01-10T10:35:02;25.38;;;14.70;;
966;SDS011;56108;48.730;9.304;2024-01-10T10:37:25;18.30;;;13.43;;
966;SDS011;56108;48.730;9.304;2024-01-10T10:39:34;23.00;;;13.63;;
966;SDS011;56108;48.730;9.304;2024-01-10T10:41:43;22.00;;;14.05;;
966;SDS011;56108;48.730;9.304;2024-01-10T10:43:57;21.45;;;11.95;;
966;SDS011;56108;48.730;9.304;2024-01-10T10:46:10;25.20;;;12.77;;
966;SDS011;56108;48.730;9.304;2024-01-10T10:48:21;12.60;;;11.30;;
966;SDS011;56108;48.730;9.304;2024-01-10T10:50:31;21.15;;;11.32;;
966;SDS011;56108;48.730;9.304;2024-01-10T10:52:42;20.98;;;11.65;;
966;SDS011;56108;48.730;9.304;2024-01-10T10:54:57;19.05;;;12.77;;
966;SDS011;56108;48.730;9.304;2024-01-10T10:57:07;24.52;;;11.25;;
966;SDS011;56108;48.730;9.304;2024-01-10T10:59:17;20.40;;;13.90;;
966;SDS011;56108;48.730;9.304;2024-01-10T11:01:31;23.98;;;13.00;;
966;SDS011;56108;48.730;9.304;2024-01-10T11:03:41;21.63;;;12.98;;
966;SDS011;56108;48.730;9.304;2024-01-10T11:05:49;17.00;;;11.70;;
966;SDS011;56108;48.730;9.304;2024-01-10T11:07:59;18.13;;;10.73;;
966;SDS011;56108;48.730;9.304;2024-01-10T11:10:11;22.75;;;13.82;;
966;SDS011;56108;48.730;9.304;2024-01-10T11:12:26;16.70;;;11.77;;
966;SDS011;56108;48.730;9.304;2024-01-10T11:14:52;18.33;;;12.07;;
966;SDS011;56108;48.730;9.304;2024-01-10T11:17:21;20.55;;;12.77;;
966;SDS011;56108;48.730;9.304;2024-01-10T11:22:22;20.60;;;13.45;;
966;SDS011;56108;48.730;9.304;2024-01-10T11:24:46;19.33;;;12.23;;
966;SDS011;56108;48.730;9.304;2024-01-10T11:27:06;17.80;;;9.73;;
966;SDS011;56108;48.730;9.304;2024-01-10T11:29:14;18.88;;;11.88;;
966;SDS011;56108;48.730;9.304;2024-01-10T11:31:27;19.48;;;11.77;;
966;SDS011;56108;48.730;9.304;2024-01-10T11:33:40;26.60;;;14.35;;
966;SDS011;56108;48.730;9.304;2024-01-10T11:38:20;18.98;;;11.82;;
966;SDS011;56108;48.730;9.304;2024-01-10T11:42:55;16.20;;;11.35;;
966;SDS011;56108;48.730;9.304;2024-01-10T11:45:07;15.00;;;10.18;;
966;SDS011;56108;48.730;9.304;2024-01-10T11:47:16;21.27;;;13.07;;
966;SDS011;56108;48.730;9.304;2024-01-10T11:49:29;19.40;;;13.00;;
966;SDS011;56108;48.730;9.304;2024-01-10T11:51:38;14.95;;;11.07;;
966;SDS011;56108;48.730;9.304;2024-01-10T11:53:47;20.80;;;13.48;;
966;SDS011;56108;48.730;9.304;2024-01-10T11:55:59;23.40;;;13.32;;
966;SDS011;56108;48.730;9.304;2024-01-10T11:58:33;18.75;;;12.82;;
966;SDS011;56108;48.730;9.304;2024-01-10T12:01:00;17.25;;;11.95;;
966;SDS011;56108;48.730;9.304;2024-01-10T12:03:09;21.63;;;12.63;;
966;SDS011;56108;48.730;9.304;2024-01-10T12:05:22;22.95;;;12.45;;
966;SDS011;56108;48.730;9.304;2024-01-10T12:07:31;20.05;;;10.38;;
966;SDS011;56108;48.730;9.304;2024-01-10T12:09:40;23.63;;;12.52;;
966;SDS011;56108;48.730;9.304;2024-01-10T12:11:47;19.73;;;11.20;;
966;SDS011;56108;48.730;9.304;2024-01-10T12:13:55;22.67;;;12.88;;
966;SDS011;56108;48.730;9.304;2024-01-10T12:16:05;20.90;;;11.40;;
966;SDS011;56108;48.730;9.304;2024-01-10T12:18:14;16.65;;;12.45;;
966;SDS011;56108;48.730;9.304;2024-01-10T12:20:25;23.77;;;15.18;;
966;SDS011;56108;48.730;9.304;2024-01-10T12:22:34;22.83;;;12.88;;
966;SDS011;56108;48.730;9.304;2024-01-10T12:24:43;20.27;;;11.10;;
966;SDS011;56108;48.730;9.304;2024-01-10T12:26:54;21.67;;;12.50;;
966;SDS011;56108;48.730;9.304;2024-01-10T12:29:04;20.48;;;13.32;;
966;SDS011;56108;48.730;9.304;2024-01-10T12:31:13;15.77;;;10.15;;
966;SDS011;56108;48.730;9.304;2024-01-10T12:33:21;19.15;;;14.10;;
966;SDS011;56108;48.730;9.304;2024-01-10T12:35:33;18.83;;;13.38;;
966;SDS011;56108;48.730;9.304;2024-01-10T12:37:42;20.33;;;12.02;;
966;SDS011;56108;48.730;9.304;2024-01-10T12:40:02;21.63;;;14.02;;
966;SDS011;56108;48.730;9.304;2024-01-10T12:42:15;20.30;;;13.52;;
966;SDS011;56108;48.730;9.304;2024-01-10T12:44:26;24.88;;;12.38;;
966;SDS011;56108;48.730;9.304;2024-01-10T12:46:35;22.88;;;13.25;;
966;SDS011;56108;48.730;9.304;2024-01-10T12:48:58;17.33;;;12.77;;
966;SDS011;56108;48.730;9.304;2024-01-10T12:51:11;22.05;;;12.60;;
966;SDS011;56108;48.730;9.304;2024-01-10T12:53:20;20.45;;;11.55;;
966;SDS011;56108;48.730;9.304;2024-01-10T12:55:29;21.48;;;14.05;;
966;SDS011;56108;48.730;9.304;2024-01-10T12:57:37;25.40;;;14.32;;
966;SDS011;56108;48.730;9.304;2024-01-10T12:59:46;20.05;;;13.50;;
966;SDS011;56108;48.730;9.304;2024-01-10T13:01:55;27.52;;;13.82;;
966;SDS011;56108;48.730;9.304;2024-01-10T13:04:04;23.50;;;14.32;;
966;SDS011;56108;48.730;9.304;2024-01-10T13:06:16;27.92;;;13.00;;
966;SDS011;56108;48.730;9.304;2024-01-10T13:08:23;24.13;;;14.82;;
966;SDS011;56108;48.730;9.304;2024-01-10T13:10:34;19.67;;;13.05;;
966;SDS011;56108;48.730;9.304;2024-01-10T13:12:42;16.30;;;12.13;;
966;SDS011;56108;48.730;9.304;2024-01-10T13:14:52;25.63;;;14.93;;
966;SDS011;56108;48.730;9.304;2024-01-10T13:17:03;19.52;;;11.63;;
966;SDS011;56108;48.730;9.304;2024-01-10T13:19:12;20.63;;;11.75;;
966;SDS011;56108;48.730;9.304;2024-01-10T13:21:24;24.00;;;13.38;;
966;SDS011;56108;48.730;9.304;2024-01-10T13:23:30;19.15;;;12.95;;
966;SDS011;56108;48.730;9.304;2024-01-10T13:25:40;19.60;;;12.05;;